sensor_id;sensor_type;location;lat;lon;timestamp;pressure;altitude;pressure_sealevel;temperature;humidity
50394;BME280;36308;46.312;25.288;2023-07-13T00:00:33;96120.41;;;21.69;69.62
50394;BME280;36308;46.312;25.288;2023-07-13T00:02:59;96115.25;;;21.67;69.64
50394;BME280;36308;46.312;25.288;2023-07-13T00:05:24;96121.38;;;21.64;69.59
50394;BME280;36308;46.312;25.288;2023-07-13T00:07:51;96120.56;;;21.64;69.67
50394;BME280;36308;46.312;25.288;2023-07-13T00:10:16;96123.97;;;21.61;69.63
50394;BME280;36308;46.312;25.288;2023-07-13T00:12:43;96115.59;;;21.57;69.80
50394;BME280;36308;46.312;25.288;2023-07-13T00:15:19;96116.25;;;21.54;69.98
50394;BME280;36308;46.312;25.288;2023-07-13T00:17:54;96113.84;;;21.52;69.87
50394;BME280;36308;46.312;25.288;2023-07-13T00:20:22;96113.69;;;21.49;69.68
50394;BME280;36308;46.312;25.288;2023-07-13T00:22:52;96118.22;;;21.45;69.63
50394;BME280;36308;46.312;25.288;2023-07-13T00:25:19;96115.63;;;21.39;69.80
50394;BME280;36308;46.312;25.288;2023-07-13T00:27:47;96113.53;;;21.36;70.05
50394;BME280;36308;46.312;25.288;2023-07-13T00:30:14;96115.31;;;21.32;69.88
50394;BME280;36308;46.312;25.288;2023-07-13T00:32:40;96108.88;;;21.28;69.96
50394;BME280;36308;46.312;25.288;2023-07-13T00:35:06;96107.91;;;21.24;70.05
50394;BME280;36308;46.312;25.288;2023-07-13T00:37:32;96104.72;;;21.22;70.32
50394;BME280;36308;46.312;25.288;2023-07-13T00:39:58;96100.22;;;21.17;70.21
50394;BME280;36308;46.312;25.288;2023-07-13T00:42:24;96096.34;;;21.18;70.49
50394;BME280;36308;46.312;25.288;2023-07-13T00:47:31;96105.03;;;21.12;69.97
50394;BME280;36308;46.312;25.288;2023-07-13T00:49:56;96104.56;;;21.10;70.27
50394;BME280;36308;46.312;25.288;2023-07-13T00:52:22;96102.50;;;21.07;70.21
50394;BME280;36308;46.312;25.288;2023-07-13T00:54:48;96097.66;;;21.04;70.04
50394;BME280;36308;46.312;25.288;2023-07-13T00:57:16;96105.38;;;21.02;70.21
50394;BME280;36308;46.312;25.288;2023-07-13T00:59:46;96098.94;;;20.97;70.13
50394;BME280;36308;46.312;25.288;2023-07-13T01:02:12;96099.59;;;20.94;70.14
50394;BME280;36308;46.312;25.288;2023-07-13T01:04:38;96093.97;;;20.91;70.08
50394;BME280;36308;46.312;25.288;2023-07-13T01:07:05;96094.63;;;20.88;69.86
50394;BME280;36308;46.312;25.288;2023-07-13T01:09:31;96095.25;;;20.85;69.66
50394;BME280;36308;46.312;25.288;2023-07-13T01:11:57;96099.75;;;20.81;69.81
50394;BME280;36308;46.312;25.288;2023-07-13T01:14:22;96099.59;;;20.77;69.67
50394;BME280;36308;46.312;25.288;2023-07-13T01:16:49;96105.72;;;20.74;69.46
50394;BME280;36308;46.312;25.288;2023-07-13T01:21:55;96106.50;;;20.66;69.63
50394;BME280;36308;46.312;25.288;2023-07-13T01:24:20;96108.28;;;20.62;69.51
50394;BME280;36308;46.312;25.288;2023-07-13T01:26:46;96104.53;;;20.57;69.72
50394;BME280;36308;46.312;25.288;2023-07-13T01:29:11;96111.78;;;20.53;69.47
50394;BME280;36308;46.312;25.288;2023-07-13T01:31:37;96111.28;;;20.51;69.74
50394;BME280;36308;46.312;25.288;2023-07-13T01:34:03;96109.22;;;20.48;69.99
50394;BME280;36308;46.312;25.288;2023-07-13T01:36:28;96103.56;;;20.45;69.99
50394;BME280;36308;46.312;25.288;2023-07-13T01:38:54;96103.41;;;20.41;69.89
50394;BME280;36308;46.312;25.288;2023-07-13T01:41:19;96103.22;;;20.37;70.09
50394;BME280;36308;46.312;25.288;2023-07-13T01:43:45;96112.88;;;20.35;70.14
50394;BME280;36308;46.312;25.288;2023-07-13T01:46:10;96111.59;;;20.32;69.99
50394;BME280;36308;46.312;25.288;2023-07-13T01:48:36;96115.28;;;20.28;70.03
50394;BME280;36308;46.312;25.288;2023-07-13T01:51:01;96112.38;;;20.24;70.03
50394;BME280;36308;46.312;25.288;2023-07-13T01:53:27;96109.78;;;20.19;69.66
50394;BME280;36308;46.312;25.288;2023-07-13T01:55:52;96116.69;;;20.16;70.03
50394;BME280;36308;46.312;25.288;2023-07-13T01:58:18;96116.97;;;20.15;70.13
50394;BME280;36308;46.312;25.288;2023-07-13T02:00:43;96119.56;;;20.11;70.04
50394;BME280;36308;46.312;25.288;2023-07-13T02:03:08;96122.91;;;20.08;70.18
50394;BME280;36308;46.312;25.288;2023-07-13T02:05:34;96122.44;;;20.06;70.03
50394;BME280;36308;46.312;25.288;2023-07-13T02:08:00;96121.13;;;20.04;69.92
50394;BME280;36308;46.312;25.288;2023-07-13T02:10:26;96117.13;;;20.01;70.27
50394;BME280;36308;46.312;25.288;2023-07-13T02:12:51;96115.00;;;19.98;70.30
50394;BME280;36308;46.312;25.288;2023-07-13T02:15:17;96103.59;;;19.96;70.13
50394;BME280;36308;46.312;25.288;2023-07-13T02:17:43;96109.72;;;19.93;70.21
50394;BME280;36308;46.312;25.288;2023-07-13T02:20:08;96101.03;;;19.91;70.19
50394;BME280;36308;46.312;25.288;2023-07-13T02:22:35;96098.94;;;19.88;70.13
50394;BME280;36308;46.312;25.288;2023-07-13T02:25:00;96107.75;;;19.85;70.08
50394;BME280;36308;46.312;25.288;2023-07-13T02:27:26;96115.44;;;19.83;69.89
50394;BME280;36308;46.312;25.288;2023-07-13T02:29:52;96111.75;;;19.78;69.97
50394;BME280;36308;46.312;25.288;2023-07-13T02:32:18;96113.19;;;19.76;69.83
50394;BME280;36308;46.312;25.288;2023-07-13T02:34:44;96111.88;;;19.73;70.13
50394;BME280;36308;46.312;25.288;2023-07-13T02:37:09;96105.41;;;19.69;69.96
50394;BME280;36308;46.312;25.288;2023-07-13T02:39:35;96108.78;;;19.66;70.06
50394;BME280;36308;46.312;25.288;2023-07-13T02:42:00;96125.78;;;19.63;70.11
50394;BME280;36308;46.312;25.288;2023-07-13T02:44:26;96122.84;;;19.59;70.24
50394;BME280;36308;46.312;25.288;2023-07-13T02:46:52;96135.22;;;19.57;69.88
50394;BME280;36308;46.312;25.288;2023-07-13T02:49:17;96130.38;;;19.54;69.89
50394;BME280;36308;46.312;25.288;2023-07-13T02:51:43;96132.59;;;19.52;70.03
50394;BME280;36308;46.312;25.288;2023-07-13T02:54:09;96123.13;;;19.49;70.21
50394;BME280;36308;46.312;25.288;2023-07-13T02:56:35;96131.63;;;19.48;70.12
50394;BME280;36308;46.312;25.288;2023-07-13T02:59:01;96130.63;;;19.44;70.32
50394;BME280;36308;46.312;25.288;2023-07-13T03:01:26;96126.59;;;19.41;70.23
50394;BME280;36308;46.312;25.288;2023-07-13T03:03:56;96128.03;;;19.38;70.32
50394;BME280;36308;46.312;25.288;2023-07-13T03:06:24;96131.06;;;19.37;70.51
50394;BME280;36308;46.312;25.288;2023-07-13T03:08:50;96130.28;;;19.36;70.73
50394;BME280;36308;46.312;25.288;2023-07-13T03:11:18;96132.50;;;19.34;70.90
50394;BME280;36308;46.312;25.288;2023-07-13T03:13:44;96130.09;;;19.33;70.95
50394;BME280;36308;46.312;25.288;2023-07-13T03:16:11;96139.38;;;19.32;71.16
50394;BME280;36308;46.312;25.288;2023-07-13T03:18:37;96136.97;;;19.30;71.31
50394;BME280;36308;46.312;25.288;2023-07-13T03:21:04;96138.56;;;19.31;71.59
50394;BME280;36308;46.312;25.288;2023-07-13T03:23:29;96139.69;;;19.30;71.71
50394;BME280;36308;46.312;25.288;2023-07-13T03:26:07;96142.41;;;19.30;71.89
50394;BME280;36308;46.312;25.288;2023-07-13T03:28:33;96147.25;;;19.33;71.91
50394;BME280;36308;46.312;25.288;2023-07-13T03:31:05;96147.72;;;19.35;72.24
50394;BME280;36308;46.312;25.288;2023-07-13T03:33:31;96146.63;;;19.36;72.44
50394;BME280;36308;46.312;25.288;2023-07-13T03:35:57;96138.94;;;19.38;72.58
50394;BME280;36308;46.312;25.288;2023-07-13T03:38:22;96142.16;;;19.41;72.58
50394;BME280;36308;46.312;25.288;2023-07-13T03:40:48;96142.66;;;19.43;72.54
50394;BME280;36308;46.312;25.288;2023-07-13T03:43:14;96152.44;;;19.44;72.52
50394;BME280;36308;46.312;25.288;2023-07-13T03:45:40;96145.53;;;19.46;72.78
50394;BME280;36308;46.312;25.288;2023-07-13T03:48:06;96146.38;;;19.47;72.70
50394;BME280;36308;46.312;25.288;2023-07-13T03:50:31;96146.88;;;19.49;72.64
50394;BME280;36308;46.312;25.288;2023-07-13T03:52:57;96150.88;;;19.51;72.72
50394;BME280;36308;46.312;25.288;2023-07-13T03:55:23;96141.91;;;19.51;72.75
50394;BME280;36308;46.312;25.288;2023-07-13T03:57:57;96152.47;;;19.52;72.81
50394;BME280;36308;46.312;25.288;2023-07-13T04:00:23;96157.63;;;19.54;73.03
50394;BME280;36308;46.312;25.288;2023-07-13T04:02:48;96149.94;;;19.56;72.89
50394;BME280;36308;46.312;25.288;2023-07-13T04:05:14;96151.56;;;19.57;72.99
50394;BME280;36308;46.312;25.288;2023-07-13T04:07:41;96155.88;;;19.58;73.07
50394;BME280;36308;46.312;25.288;2023-07-13T04:10:07;96155.59;;;19.59;73.27
50394;BME280;36308;46.312;25.288;2023-07-13T04:12:32;96153.34;;;19.62;73.36
50394;BME280;36308;46.312;25.288;2023-07-13T04:14:58;96151.41;;;19.62;73.36
50394;BME280;36308;46.312;25.288;2023-07-13T04:17:23;96159.00;;;19.65;73.25
50394;BME280;36308;46.312;25.288;2023-07-13T04:19:49;96167.66;;;19.67;73.66
50394;BME280;36308;46.312;25.288;2023-07-13T04:22:15;96162.69;;;19.69;73.81
50394;BME280;36308;46.312;25.288;2023-07-13T04:24:40;96163.19;;;19.71;73.48
50394;BME280;36308;46.312;25.288;2023-07-13T04:27:06;96163.69;;;19.73;73.34
50394;BME280;36308;46.312;25.288;2023-07-13T04:29:32;96158.72;;;19.75;73.38
50394;BME280;36308;46.312;25.288;2023-07-13T04:31:57;96170.47;;;19.76;73.42
50394;BME280;36308;46.312;25.288;2023-07-13T04:34:23;96171.75;;;19.78;73.61
50394;BME280;36308;46.312;25.288;2023-07-13T04:36:49;96165.66;;;19.82;73.65
50394;BME280;36308;46.312;25.288;2023-07-13T04:39:15;96160.69;;;19.84;73.56
50394;BME280;36308;46.312;25.288;2023-07-13T04:41:41;96149.16;;;19.87;73.56
50394;BME280;36308;46.312;25.288;2023-07-13T04:44:07;96150.75;;;19.88;73.36
50394;BME280;36308;46.312;25.288;2023-07-13T04:46:32;96161.06;;;19.91;73.67
50394;BME280;36308;46.312;25.288;2023-07-13T04:48:58;96154.47;;;19.92;73.42
50394;BME280;36308;46.312;25.288;2023-07-13T04:51:24;96162.53;;;19.97;73.61
50394;BME280;36308;46.312;25.288;2023-07-13T04:53:50;96167.03;;;20.02;73.57
50394;BME280;36308;46.312;25.288;2023-07-13T04:56:15;96165.59;;;20.04;73.45
50394;BME280;36308;46.312;25.288;2023-07-13T04:58:41;96157.91;;;20.06;73.51
50394;BME280;36308;46.312;25.288;2023-07-13T05:01:06;96161.63;;;20.10;73.50
50394;BME280;36308;46.312;25.288;2023-07-13T05:03:33;96178.47;;;20.12;73.26
50394;BME280;36308;46.312;25.288;2023-07-13T05:06:02;96170.47;;;20.16;73.35
50394;BME280;36308;46.312;25.288;2023-07-13T05:08:28;96162.47;;;20.19;73.28
50394;BME280;36308;46.312;25.288;2023-07-13T05:10:54;96165.69;;;20.22;73.35
50394;BME280;36308;46.312;25.288;2023-07-13T05:13:20;96157.97;;;20.24;73.40
50394;BME280;36308;46.312;25.288;2023-07-13T05:15:48;96167.94;;;20.28;73.34
50394;BME280;36308;46.312;25.288;2023-07-13T05:18:20;96162.31;;;20.33;73.44
50394;BME280;36308;46.312;25.288;2023-07-13T05:20:45;96168.75;;;20.37;73.09
50394;BME280;36308;46.312;25.288;2023-07-13T05:23:11;96165.91;;;20.43;73.06
50394;BME280;36308;46.312;25.288;2023-07-13T05:25:36;96166.88;;;20.47;72.93
50394;BME280;36308;46.312;25.288;2023-07-13T05:28:02;96161.59;;;20.50;72.96
50394;BME280;36308;46.312;25.288;2023-07-13T05:30:27;96172.84;;;20.57;73.07
50394;BME280;36308;46.312;25.288;2023-07-13T05:32:53;96169.34;;;20.66;73.30
50394;BME280;36308;46.312;25.288;2023-07-13T05:35:18;96173.03;;;20.70;73.09
50394;BME280;36308;46.312;25.288;2023-07-13T05:37:44;96174.50;;;20.76;72.86
50394;BME280;36308;46.312;25.288;2023-07-13T05:40:09;96168.56;;;20.83;73.02
50394;BME280;36308;46.312;25.288;2023-07-13T05:42:35;96172.75;;;20.89;72.98
50394;BME280;36308;46.312;25.288;2023-07-13T05:45:02;96173.88;;;20.96;72.67
50394;BME280;36308;46.312;25.288;2023-07-13T05:47:27;96178.06;;;21.03;72.55
50394;BME280;36308;46.312;25.288;2023-07-13T05:49:53;96174.84;;;21.09;72.43
50394;BME280;36308;46.312;25.288;2023-07-13T05:52:19;96173.56;;;21.15;72.19
50394;BME280;36308;46.312;25.288;2023-07-13T05:54:44;96170.31;;;21.22;72.03
50394;BME280;36308;46.312;25.288;2023-07-13T05:57:09;96172.72;;;21.32;71.61
50394;BME280;36308;46.312;25.288;2023-07-13T05:59:35;96176.91;;;21.38;71.52
50394;BME280;36308;46.312;25.288;2023-07-13T06:02:01;96175.66;;;21.45;71.31
50394;BME280;36308;46.312;25.288;2023-07-13T06:04:26;96177.88;;;21.51;71.15
50394;BME280;36308;46.312;25.288;2023-07-13T06:06:52;96179.81;;;21.59;71.34
50394;BME280;36308;46.312;25.288;2023-07-13T06:09:18;96180.25;;;21.70;71.43
50394;BME280;36308;46.312;25.288;2023-07-13T06:11:43;96166.56;;;21.79;71.34
50394;BME280;36308;46.312;25.288;2023-07-13T06:14:09;96159.91;;;21.89;71.25
50394;BME280;36308;46.312;25.288;2023-07-13T06:16:34;96172.94;;;22.00;71.06
50394;BME280;36308;46.312;25.288;2023-07-13T06:19:00;96175.63;;;22.09;70.63
50394;BME280;36308;46.312;25.288;2023-07-13T06:21:26;96173.66;;;22.18;70.43
50394;BME280;36308;46.312;25.288;2023-07-13T06:23:52;96165.44;;;22.27;70.19
50394;BME280;36308;46.312;25.288;2023-07-13T06:26:19;96163.13;;;22.38;69.93
50394;BME280;36308;46.312;25.288;2023-07-13T06:28:46;96154.53;;;22.48;69.79
50394;BME280;36308;46.312;25.288;2023-07-13T06:31:13;96159.63;;;22.58;69.39
50394;BME280;36308;46.312;25.288;2023-07-13T06:33:39;96164.72;;;22.69;69.15
50394;BME280;36308;46.312;25.288;2023-07-13T06:36:05;96157.22;;;22.78;68.97
50394;BME280;36308;46.312;25.288;2023-07-13T06:38:31;96154.09;;;22.88;68.72
50394;BME280;36308;46.312;25.288;2023-07-13T06:40:57;96161.91;;;22.98;69.00
50394;BME280;36308;46.312;25.288;2023-07-13T06:43:23;96153.31;;;23.09;68.66
50394;BME280;36308;46.312;25.288;2023-07-13T06:45:50;96154.06;;;23.18;68.45
50394;BME280;36308;46.312;25.288;2023-07-13T06:48:17;96148.59;;;23.30;68.31
50394;BME280;36308;46.312;25.288;2023-07-13T06:50:43;96158.03;;;23.42;68.25
50394;BME280;36308;46.312;25.288;2023-07-13T06:53:13;96161.84;;;23.49;68.31
50394;BME280;36308;46.312;25.288;2023-07-13T06:55:39;96164.25;;;23.63;68.03
50394;BME280;36308;46.312;25.288;2023-07-13T06:58:05;96165.44;;;23.74;67.62
50394;BME280;36308;46.312;25.288;2023-07-13T07:00:31;96166.63;;;23.86;67.29
50394;BME280;36308;46.312;25.288;2023-07-13T07:02:56;96174.91;;;23.98;67.07
50394;BME280;36308;46.312;25.288;2023-07-13T07:05:22;96174.47;;;24.08;66.74
50394;BME280;36308;46.312;25.288;2023-07-13T07:07:52;96170.09;;;24.19;66.44
50394;BME280;36308;46.312;25.288;2023-07-13T07:10:18;96184.69;;;24.32;66.45
50394;BME280;36308;46.312;25.288;2023-07-13T07:12:44;96184.31;;;24.46;65.96
50394;BME280;36308;46.312;25.288;2023-07-13T07:15:09;96176.09;;;24.58;64.66
50394;BME280;36308;46.312;25.288;2023-07-13T07:17:35;96182.03;;;24.73;64.34
50394;BME280;36308;46.312;25.288;2023-07-13T07:20:00;96187.06;;;24.83;64.05
50394;BME280;36308;46.312;25.288;2023-07-13T07:22:26;96167.69;;;24.92;63.67
50394;BME280;36308;46.312;25.288;2023-07-13T07:24:53;96165.63;;;25.01;63.41
50394;BME280;36308;46.312;25.288;2023-07-13T07:27:19;96171.63;;;25.19;63.34
50394;BME280;36308;46.312;25.288;2023-07-13T07:29:45;96176.44;;;25.34;63.45
50394;BME280;36308;46.312;25.288;2023-07-13T07:32:11;96173.63;;;25.47;63.57
50394;BME280;36308;46.312;25.288;2023-07-13T07:34:36;96171.97;;;25.58;62.96
50394;BME280;36308;46.312;25.288;2023-07-13T07:37:02;96171.44;;;25.68;62.41
50394;BME280;36308;46.312;25.288;2023-07-13T07:39:28;96169.34;;;25.77;62.25
50394;BME280;36308;46.312;25.288;2023-07-13T07:41:54;96168.81;;;25.88;62.45
50394;BME280;36308;46.312;25.288;2023-07-13T07:44:19;96179.78;;;26.00;62.18
50394;BME280;36308;46.312;25.288;2023-07-13T07:46:45;96178.13;;;26.11;62.26
50394;BME280;36308;46.312;25.288;2023-07-13T07:49:10;96180.34;;;26.21;61.81
50394;BME280;36308;46.312;25.288;2023-07-13T07:51:37;96175.09;;;26.32;61.64
50394;BME280;36308;46.312;25.288;2023-07-13T07:54:04;96179.72;;;26.44;61.51
50394;BME280;36308;46.312;25.288;2023-07-13T07:56:29;96186.28;;;26.55;60.95
50394;BME280;36308;46.312;25.288;2023-07-13T07:58:55;96190.56;;;26.69;60.88
50394;BME280;36308;46.312;25.288;2023-07-13T08:01:21;96192.31;;;26.77;60.30
50394;BME280;36308;46.312;25.288;2023-07-13T08:03:47;96196.66;;;26.94;59.79
50394;BME280;36308;46.312;25.288;2023-07-13T08:06:12;96191.38;;;27.05;59.41
50394;BME280;36308;46.312;25.288;2023-07-13T08:08:38;96192.38;;;27.16;59.16
50394;BME280;36308;46.312;25.288;2023-07-13T08:11:06;96193.06;;;27.29;58.37
50394;BME280;36308;46.312;25.288;2023-07-13T08:13:32;96200.00;;;27.38;57.77
50394;BME280;36308;46.312;25.288;2023-07-13T08:15:58;96193.88;;;27.49;57.70
50394;BME280;36308;46.312;25.288;2023-07-13T08:18:24;96194.88;;;27.60;57.55
50394;BME280;36308;46.312;25.288;2023-07-13T08:20:49;96186.53;;;27.76;57.20
50394;BME280;36308;46.312;25.288;2023-07-13T08:23:15;96188.78;;;27.90;57.13
50394;BME280;36308;46.312;25.288;2023-07-13T08:25:42;96173.63;;;28.03;56.91
50394;BME280;36308;46.312;25.288;2023-07-13T08:28:08;96160.50;;;28.19;56.88
50394;BME280;36308;46.312;25.288;2023-07-13T08:30:33;96160.72;;;28.34;56.50
50394;BME280;36308;46.312;25.288;2023-07-13T08:32:59;96152.22;;;28.46;55.91
50394;BME280;36308;46.312;25.288;2023-07-13T08:35:25;96150.16;;;28.63;55.26
50394;BME280;36308;46.312;25.288;2023-07-13T08:37:51;96159.81;;;28.76;54.94
50394;BME280;36308;46.312;25.288;2023-07-13T08:40:18;96158.81;;;28.88;54.39
50394;BME280;36308;46.312;25.288;2023-07-13T08:42:55;96161.34;;;29.00;54.04
50394;BME280;36308;46.312;25.288;2023-07-13T08:45:22;96170.66;;;29.15;53.81
50394;BME280;36308;46.312;25.288;2023-07-13T08:48:02;96166.88;;;29.27;53.03
50394;BME280;36308;46.312;25.288;2023-07-13T08:50:33;96159.84;;;29.36;52.53
50394;BME280;36308;46.312;25.288;2023-07-13T08:53:02;96156.03;;;29.48;52.01
50394;BME280;36308;46.312;25.288;2023-07-13T08:55:31;96163.25;;;29.56;51.24
50394;BME280;36308;46.312;25.288;2023-07-13T08:58:09;96150.72;;;29.66;51.82
50394;BME280;36308;46.312;25.288;2023-07-13T09:00:44;96163.91;;;29.76;51.62
50394;BME280;36308;46.312;25.288;2023-07-13T09:03:19;96176.31;;;29.90;50.80
50394;BME280;36308;46.312;25.288;2023-07-13T09:05:52;96173.22;;;29.98;50.11
50394;BME280;36308;46.312;25.288;2023-07-13T09:13:54;96185.44;;;30.31;49.79
50394;BME280;36308;46.312;25.288;2023-07-13T09:16:22;96174.44;;;30.42;49.73
50394;BME280;36308;46.312;25.288;2023-07-13T09:18:52;96182.47;;;30.54;49.24
50394;BME280;36308;46.312;25.288;2023-07-13T09:21:41;96173.88;;;30.70;48.42
50394;BME280;36308;46.312;25.288;2023-07-13T09:27:34;96151.88;;;30.99;48.46
50394;BME280;36308;46.312;25.288;2023-07-13T09:30:21;96145.19;;;31.11;48.35
50394;BME280;36308;46.312;25.288;2023-07-13T09:32:52;96146.44;;;31.24;48.03
50394;BME280;36308;46.312;25.288;2023-07-13T09:35:26;96148.47;;;31.34;47.66
50394;BME280;36308;46.312;25.288;2023-07-13T09:37:57;96161.25;;;31.50;47.39
50394;BME280;36308;46.312;25.288;2023-07-13T09:43:20;96161.75;;;31.80;45.97
50394;BME280;36308;46.312;25.288;2023-07-13T09:45:46;96178.47;;;31.95;46.04
50394;BME280;36308;46.312;25.288;2023-07-13T09:48:17;96175.31;;;32.04;45.84
50394;BME280;36308;46.312;25.288;2023-07-13T09:50:43;96167.41;;;32.09;44.79
50394;BME280;36308;46.312;25.288;2023-07-13T09:53:17;96160.22;;;32.08;44.41
50394;BME280;36308;46.312;25.288;2023-07-13T09:55:47;96156.28;;;32.09;44.88
50394;BME280;36308;46.312;25.288;2023-07-13T10:00:39;96169.38;;;32.12;44.08
50394;BME280;36308;46.312;25.288;2023-07-13T10:03:19;96163.44;;;32.17;44.08
50394;BME280;36308;46.312;25.288;2023-07-13T10:05:47;96145.97;;;32.28;43.47
50394;BME280;36308;46.312;25.288;2023-07-13T10:10:57;96162.66;;;32.42;43.41
50394;BME280;36308;46.312;25.288;2023-07-13T10:13:37;96159.50;;;32.54;43.22
50394;BME280;36308;46.312;25.288;2023-07-13T10:16:06;96156.31;;;32.67;43.46
50394;BME280;36308;46.312;25.288;2023-07-13T10:18:43;96152.31;;;32.82;43.93
50394;BME280;36308;46.312;25.288;2023-07-13T10:21:21;96159.41;;;32.97;43.65
50394;BME280;36308;46.312;25.288;2023-07-13T10:23:52;96161.81;;;33.17;43.18
50394;BME280;36308;46.312;25.288;2023-07-13T10:26:25;96153.78;;;33.33;42.49
50394;BME280;36308;46.312;25.288;2023-07-13T10:28:54;96157.69;;;33.47;40.92
50394;BME280;36308;46.312;25.288;2023-07-13T10:31:22;96151.28;;;33.57;40.39
50394;BME280;36308;46.312;25.288;2023-07-13T10:33:48;96151.69;;;33.66;39.79
50394;BME280;36308;46.312;25.288;2023-07-13T10:36:34;96151.63;;;33.77;39.05
50394;BME280;36308;46.312;25.288;2023-07-13T10:39:04;96155.91;;;33.89;39.00
50394;BME280;36308;46.312;25.288;2023-07-13T10:41:35;96163.03;;;33.97;38.97
50394;BME280;36308;46.312;25.288;2023-07-13T10:44:03;96156.59;;;34.07;39.06
50394;BME280;36308;46.312;25.288;2023-07-13T10:46:30;96164.53;;;34.16;38.60
50394;BME280;36308;46.312;25.288;2023-07-13T10:49:01;96158.53;;;34.17;38.15
50394;BME280;36308;46.312;25.288;2023-07-13T10:51:30;96161.34;;;34.17;38.17
50394;BME280;36308;46.312;25.288;2023-07-13T10:54:16;96158.94;;;34.16;38.28
50394;BME280;36308;46.312;25.288;2023-07-13T10:56:42;96148.59;;;34.16;38.14
50394;BME280;36308;46.312;25.288;2023-07-13T11:04:12;96137.47;;;34.13;37.70
50394;BME280;36308;46.312;25.288;2023-07-13T11:06:41;96129.50;;;34.08;37.48
50394;BME280;36308;46.312;25.288;2023-07-13T11:09:38;96137.84;;;34.11;37.93
50394;BME280;36308;46.312;25.288;2023-07-13T11:12:48;96119.84;;;34.23;38.55
50394;BME280;36308;46.312;25.288;2023-07-13T11:15:28;96118.09;;;34.40;38.58
50394;BME280;36308;46.312;25.288;2023-07-13T11:17:55;96122.38;;;34.55;38.57
50394;BME280;36308;46.312;25.288;2023-07-13T11:20:37;96127.44;;;34.68;38.07
50394;BME280;36308;46.312;25.288;2023-07-13T11:25:37;96106.72;;;34.69;37.79
50394;BME280;36308;46.312;25.288;2023-07-13T11:36:22;96087.66;;;34.56;38.81
50394;BME280;36308;46.312;25.288;2023-07-13T11:41:26;96076.81;;;34.66;38.67
50394;BME280;36308;46.312;25.288;2023-07-13T11:44:05;96073.97;;;34.73;39.06
50394;BME280;36308;46.312;25.288;2023-07-13T11:46:31;96067.47;;;34.83;38.91
50394;BME280;36308;46.312;25.288;2023-07-13T11:48:56;96069.78;;;34.88;38.82
50394;BME280;36308;46.312;25.288;2023-07-13T11:51:30;96073.66;;;34.98;38.75
50394;BME280;36308;46.312;25.288;2023-07-13T11:54:01;96068.81;;;35.06;38.55
50394;BME280;36308;46.312;25.288;2023-07-13T11:56:28;96056.72;;;35.16;38.19
50394;BME280;36308;46.312;25.288;2023-07-13T11:58:56;96059.00;;;35.25;37.55
50394;BME280;36308;46.312;25.288;2023-07-13T12:01:31;96066.88;;;35.33;38.09
50394;BME280;36308;46.312;25.288;2023-07-13T12:04:00;96061.91;;;35.45;37.83
50394;BME280;36308;46.312;25.288;2023-07-13T12:06:29;96066.56;;;35.55;37.73
50394;BME280;36308;46.312;25.288;2023-07-13T12:09:00;96062.44;;;35.67;37.10
50394;BME280;36308;46.312;25.288;2023-07-13T12:11:28;96059.94;;;35.76;36.68
50394;BME280;36308;46.312;25.288;2023-07-13T12:13:54;96055.34;;;35.86;37.03
50394;BME280;36308;46.312;25.288;2023-07-13T12:16:28;96050.81;;;35.95;36.62
50394;BME280;36308;46.312;25.288;2023-07-13T12:18:56;96036.28;;;36.04;36.18
50394;BME280;36308;46.312;25.288;2023-07-13T12:21:29;96026.56;;;36.12;36.29
50394;BME280;36308;46.312;25.288;2023-07-13T12:23:55;96015.28;;;36.19;36.23
50394;BME280;36308;46.312;25.288;2023-07-13T12:26:21;96009.91;;;36.29;36.31
50394;BME280;36308;46.312;25.288;2023-07-13T12:28:50;95995.75;;;36.36;35.71
50394;BME280;36308;46.312;25.288;2023-07-13T12:33:58;95971.53;;;36.49;34.84
50394;BME280;36308;46.312;25.288;2023-07-13T12:36:24;95963.50;;;36.51;35.38
50394;BME280;36308;46.312;25.288;2023-07-13T12:38:50;95959.47;;;36.52;35.30
50394;BME280;36308;46.312;25.288;2023-07-13T12:41:16;95951.41;;;36.54;35.28
50394;BME280;36308;46.312;25.288;2023-07-13T12:43:45;95952.50;;;36.60;34.94
50394;BME280;36308;46.312;25.288;2023-07-13T12:46:19;95942.41;;;36.67;34.20
50394;BME280;36308;46.312;25.288;2023-07-13T12:48:49;95939.97;;;36.69;33.30
50394;BME280;36308;46.312;25.288;2023-07-13T12:51:16;95928.75;;;36.69;33.86
50394;BME280;36308;46.312;25.288;2023-07-13T12:53:47;95923.50;;;36.71;34.07
50394;BME280;36308;46.312;25.288;2023-07-13T12:56:19;95914.25;;;36.74;33.81
50394;BME280;36308;46.312;25.288;2023-07-13T12:58:46;95915.75;;;36.78;34.11
50394;BME280;36308;46.312;25.288;2023-07-13T13:01:14;95914.09;;;36.81;33.34
50394;BME280;36308;46.312;25.288;2023-07-13T13:03:46;95914.09;;;36.81;33.03
50394;BME280;36308;46.312;25.288;2023-07-13T13:08:41;95915.91;;;36.71;31.97
50394;BME280;36308;46.312;25.288;2023-07-13T13:11:09;95913.63;;;36.66;32.74
50394;BME280;36308;46.312;25.288;2023-07-13T13:13:35;95916.47;;;36.63;32.96
50394;BME280;36308;46.312;25.288;2023-07-13T13:16:14;95908.00;;;36.66;32.28
50394;BME280;36308;46.312;25.288;2023-07-13T13:18:42;95923.50;;;36.71;32.60
50394;BME280;36308;46.312;25.288;2023-07-13T13:21:09;95930.19;;;36.77;32.64
50394;BME280;36308;46.312;25.288;2023-07-13T13:23:35;95933.34;;;36.79;32.37
50394;BME280;36308;46.312;25.288;2023-07-13T13:26:02;95938.44;;;36.84;31.98
50394;BME280;36308;46.312;25.288;2023-07-13T13:28:27;95944.41;;;36.86;32.22
50394;BME280;36308;46.312;25.288;2023-07-13T13:30:53;95941.97;;;36.88;32.52
50394;BME280;36308;46.312;25.288;2023-07-13T13:33:21;95945.19;;;36.87;32.65
50394;BME280;36308;46.312;25.288;2023-07-13T13:35:47;95950.00;;;36.86;32.46
50394;BME280;36308;46.312;25.288;2023-07-13T13:40:40;95960.16;;;36.80;31.94